createdAt,value
2022-11-05T00:02:19.629Z,75.22
2022-11-05T00:05:06.051Z,74.95
2022-11-05T00:08:06.439Z,74.98
2022-11-05T00:10:38.457Z,75.59
2022-11-05T00:13:27.844Z,76.13
2022-11-05T00:16:14.582Z,76.91
2022-11-05T00:18:42.088Z,77.52
2022-11-05T00:21:30.028Z,78.44
2022-11-05T00:24:19.259Z,81.02
2022-11-05T00:26:51.150Z,82.14
2022-11-05T00:29:18.638Z,82.88
2022-11-05T00:31:46.549Z,84.38
2022-11-05T00:34:14.107Z,86.60
2022-11-05T00:36:42.035Z,87.15
2022-11-05T00:39:09.575Z,87.19
2022-11-05T00:41:37.550Z,88.00
2022-11-05T00:44:23.910Z,88.13
2022-11-05T00:47:11.743Z,89.30
2022-11-05T00:49:39.325Z,89.13
2022-11-05T00:52:25.945Z,89.69
2022-11-05T00:54:53.565Z,91.24
2022-11-05T00:57:21.370Z,92.70
2022-11-05T00:59:48.929Z,92.92
2022-11-05T01:02:16.970Z,93.81
2022-11-05T01:04:44.668Z,94.89
2022-11-05T01:07:12.603Z,94.40
2022-11-05T01:09:40.094Z,94.39
2022-11-05T01:12:07.973Z,95.62
2022-11-05T01:14:35.585Z,96.35
2022-11-05T01:17:03.481Z,97.22
2022-11-05T01:19:31.978Z,97.75
2022-11-05T01:21:59.906Z,97.73
2022-11-05T01:24:27.524Z,98.31
2022-11-05T01:26:55.374Z,98.85
2022-11-05T01:29:22.921Z,99.05
2022-11-05T01:31:50.855Z,99.15
2022-11-05T01:34:18.411Z,99.18
2022-11-05T01:36:46.461Z,99.29
2022-11-05T01:39:14.080Z,98.99
2022-11-05T01:41:42.161Z,99.29
2022-11-05T01:44:57.601Z,99.03
2022-11-05T01:48:03.363Z,99.02
2022-11-05T01:50:58.309Z,97.26
2022-11-05T01:53:35.805Z,97.73
2022-11-05T01:56:14.807Z,98.22
2022-11-05T01:58:53.070Z,97.80
2022-11-05T02:01:21.269Z,97.19
2022-11-05T02:03:53.523Z,97.25
2022-11-05T02:06:21.762Z,97.53
2022-11-05T02:09:05.770Z,97.88
2022-11-05T02:11:33.720Z,97.65
2022-11-05T02:14:01.643Z,96.36
2022-11-05T02:16:53.042Z,94.04
2022-11-05T02:20:07.749Z,94.40
2022-11-05T02:23:31.818Z,95.36
2022-11-05T02:26:35.957Z,95.73
2022-11-05T02:29:35.408Z,95.69
2022-11-05T02:32:35.777Z,96.06
2022-11-05T02:35:18.105Z,96.26
2022-11-05T02:38:34.564Z,96.20
2022-11-05T02:41:36.578Z,96.63
2022-11-05T02:44:38.547Z,97.37
2022-11-05T02:47:18.194Z,97.57
2022-11-05T02:50:24.546Z,97.90
2022-11-05T02:53:14.812Z,98.41
2022-11-05T02:55:59.793Z,98.82
2022-11-05T02:58:31.103Z,99.08
2022-11-05T03:01:00.428Z,99.27
2022-11-05T03:03:35.184Z,99.84
2022-11-05T03:06:31.004Z,100.00
2022-11-05T03:09:19.660Z,100.00
2022-11-05T03:12:45.693Z,100.00
2022-11-05T03:15:42.421Z,100.00
2022-11-05T03:18:43.486Z,100.00
2022-11-05T03:21:41.404Z,100.00
2022-11-05T03:24:30.213Z,100.00
2022-11-05T03:27:23.683Z,100.00
2022-11-05T03:30:00.429Z,100.00
2022-11-05T03:32:32.913Z,100.00
2022-11-05T03:35:19.889Z,100.00
2022-11-05T03:37:52.612Z,100.00
2022-11-05T03:40:24.080Z,100.00
2022-11-05T03:42:56.402Z,100.00
2022-11-05T03:45:40.750Z,100.00
2022-11-05T03:48:13.207Z,100.00
2022-11-05T03:50:53.160Z,100.00
2022-11-05T03:53:30.284Z,100.00
2022-11-05T03:56:31.147Z,100.00
2022-11-05T03:59:02.040Z,100.00
2022-11-05T04:01:31.348Z,100.00
2022-11-05T04:03:58.970Z,100.00
2022-11-05T04:06:45.519Z,100.00
2022-11-05T04:09:36.358Z,100.00
2022-11-05T04:12:23.039Z,100.00
2022-11-05T04:14:50.852Z,100.00
2022-11-05T04:17:18.680Z,100.00
2022-11-05T04:20:04.992Z,100.00
2022-11-05T04:22:53.736Z,100.00
2022-11-05T04:25:22.441Z,100.00
2022-11-05T04:27:51.250Z,100.00
2022-11-05T04:30:20.237Z,100.00
2022-11-05T04:33:01.330Z,100.00
2022-11-05T04:35:36.677Z,100.00
2022-11-05T04:38:07.812Z,100.00
2022-11-05T04:40:35.773Z,100.00
2022-11-05T04:43:04.821Z,100.00
2022-11-05T04:45:34.810Z,100.00
2022-11-05T04:48:04.238Z,100.00
2022-11-05T04:50:33.274Z,100.00
2022-11-05T04:53:01.193Z,100.00
2022-11-05T04:55:28.916Z,100.00
2022-11-05T04:57:56.998Z,100.00
2022-11-05T05:00:24.979Z,100.00
2022-11-05T05:02:53.031Z,100.00
2022-11-05T05:05:22.606Z,100.00
2022-11-05T05:07:50.637Z,100.00
2022-11-05T05:10:18.313Z,100.00
2022-11-05T05:12:46.203Z,100.00
2022-11-05T05:15:13.989Z,100.00
2022-11-05T05:17:41.906Z,100.00
2022-11-05T05:20:28.141Z,100.00
2022-11-05T05:22:56.220Z,100.00
2022-11-05T05:25:23.906Z,100.00
2022-11-05T05:27:51.764Z,100.00
2022-11-05T05:30:19.361Z,100.00
2022-11-05T05:32:47.216Z,100.00
2022-11-05T05:35:15.121Z,100.00
2022-11-05T05:37:43.426Z,100.00
2022-11-05T05:40:11.939Z,100.00
2022-11-05T05:42:43.181Z,100.00
2022-11-05T05:45:12.778Z,100.00
2022-11-05T05:47:40.523Z,100.00
2022-11-05T05:50:08.381Z,100.00
2022-11-05T05:52:36.194Z,100.00
2022-11-05T05:55:04.467Z,100.00
2022-11-05T05:57:32.469Z,100.00
2022-11-05T06:00:01.943Z,100.00
2022-11-05T06:02:39.774Z,100.00
2022-11-05T06:05:07.932Z,100.00
2022-11-05T06:07:37.404Z,100.00
2022-11-05T06:10:06.349Z,100.00
2022-11-05T06:12:34.313Z,100.00
2022-11-05T06:15:01.914Z,100.00
2022-11-05T06:17:29.813Z,100.00
2022-11-05T06:19:57.271Z,100.00
2022-11-05T06:22:27.231Z,100.00
2022-11-05T06:24:55.158Z,100.00
2022-11-05T06:27:23.031Z,100.00
2022-11-05T06:29:50.519Z,100.00
2022-11-05T06:32:18.312Z,100.00
2022-11-05T06:34:45.845Z,100.00
2022-11-05T06:37:13.675Z,100.00
2022-11-05T06:39:41.154Z,100.00
2022-11-05T06:42:18.422Z,100.00
2022-11-05T06:44:46.885Z,100.00
2022-11-05T06:47:15.015Z,100.00
2022-11-05T06:49:42.517Z,100.00
2022-11-05T06:52:11.237Z,100.00
2022-11-05T06:54:39.075Z,100.00
2022-11-05T06:57:09.913Z,100.00
2022-11-05T06:59:39.075Z,100.00
2022-11-05T07:02:07.784Z,100.00
2022-11-05T07:04:35.323Z,100.00
2022-11-05T07:07:03.305Z,100.00
2022-11-05T07:09:30.896Z,100.00
2022-11-05T07:11:58.958Z,100.00
2022-11-05T07:14:26.446Z,100.00
2022-11-05T07:16:54.280Z,100.00
2022-11-05T07:19:21.830Z,100.00
2022-11-05T07:21:50.937Z,100.00
2022-11-05T07:24:18.607Z,100.00
2022-11-05T07:26:46.541Z,100.00
2022-11-05T07:29:14.061Z,100.00
2022-11-05T07:31:41.911Z,100.00
2022-11-05T07:34:09.354Z,100.00
2022-11-05T07:36:39.463Z,100.00
2022-11-05T07:39:07.309Z,100.00
2022-11-05T07:41:35.123Z,100.00
2022-11-05T07:44:03.924Z,100.00
2022-11-05T07:46:32.153Z,100.00
2022-11-05T07:48:59.638Z,100.00
2022-11-05T07:51:27.591Z,100.00
2022-11-05T07:53:55.007Z,100.00
2022-11-05T07:56:25.714Z,100.00
2022-11-05T07:58:53.172Z,100.00
2022-11-05T08:01:21.114Z,100.00
2022-11-05T08:03:48.824Z,100.00
2022-11-05T08:06:16.801Z,100.00
2022-11-05T08:08:44.314Z,100.00
2022-11-05T08:11:12.845Z,100.00
2022-11-05T08:13:40.481Z,100.00
2022-11-05T08:16:09.659Z,100.00
2022-11-05T08:18:37.683Z,100.00
2022-11-05T08:21:06.366Z,100.00
2022-11-05T08:26:39.867Z,100.00
2022-11-05T08:29:07.277Z,100.00
2022-11-05T08:31:37.134Z,100.00
2022-11-05T08:34:04.487Z,100.00
2022-11-05T08:36:32.304Z,100.00
2022-11-05T08:38:59.813Z,100.00
2022-11-05T08:41:27.621Z,100.00
2022-11-05T08:43:56.621Z,100.00
2022-11-05T08:46:24.381Z,100.00
2022-11-05T08:48:51.869Z,100.00
2022-11-05T08:51:38.628Z,100.00
2022-11-05T08:54:06.228Z,100.00
2022-11-05T08:56:34.066Z,100.00
2022-11-05T08:59:01.658Z,100.00
2022-11-05T09:01:29.564Z,100.00
2022-11-05T09:03:57.146Z,100.00
2022-11-05T09:06:25.027Z,100.00
2022-11-05T09:08:52.462Z,100.00
2022-11-05T09:11:20.234Z,100.00
2022-11-05T09:13:47.724Z,100.00
2022-11-05T09:16:25.003Z,100.00
2022-11-05T09:18:52.835Z,100.00
2022-11-05T09:21:20.600Z,100.00
2022-11-05T09:23:48.330Z,100.00
2022-11-05T09:26:16.179Z,100.00
2022-11-05T09:28:43.723Z,100.00
2022-11-05T09:31:12.682Z,100.00
2022-11-05T09:33:41.543Z,100.00
2022-11-05T09:36:09.670Z,100.00
2022-11-05T09:38:37.251Z,100.00
2022-11-05T09:41:31.164Z,100.00
2022-11-05T09:44:37.570Z,100.00
2022-11-05T09:47:13.978Z,100.00
2022-11-05T09:49:54.366Z,100.00
2022-11-05T09:52:27.983Z,100.00
2022-11-05T09:54:56.831Z,100.00
2022-11-05T09:57:56.034Z,100.00
2022-11-05T10:00:23.840Z,100.00
2022-11-05T10:03:19.450Z,100.00
2022-11-05T10:05:49.289Z,100.00
2022-11-05T10:08:32.826Z,100.00
2022-11-05T10:11:16.519Z,100.00
2022-11-05T10:14:00.183Z,100.00
2022-11-05T10:16:31.610Z,100.00
2022-11-05T10:19:06.510Z,100.00
2022-11-05T10:22:04.436Z,100.00
2022-11-05T10:24:23.543Z,100.00
2022-11-05T10:26:53.894Z,100.00
2022-11-05T10:29:30.267Z,100.00
2022-11-05T10:32:00.356Z,100.00
2022-11-05T10:34:33.796Z,100.00
2022-11-05T10:37:01.644Z,100.00
2022-11-05T10:39:32.583Z,100.00
2022-11-05T10:42:43.078Z,100.00
2022-11-05T10:45:22.919Z,100.00
2022-11-05T10:47:59.804Z,100.00
2022-11-05T10:50:30.171Z,100.00
2022-11-05T10:53:07.945Z,100.00
2022-11-05T10:55:41.360Z,100.00
2022-11-05T10:58:30.356Z,100.00
2022-11-05T11:00:58.237Z,100.00
2022-11-05T11:04:03.776Z,100.00
2022-11-05T11:06:37.881Z,100.00
2022-11-05T11:09:29.054Z,100.00
2022-11-05T11:12:21.712Z,100.00
2022-11-05T11:15:02.641Z,100.00
2022-11-05T11:17:32.832Z,100.00
2022-11-05T11:20:28.063Z,100.00
2022-11-05T11:23:13.956Z,100.00
2022-11-05T11:26:01.405Z,100.00
2022-11-05T11:28:48.136Z,100.00
2022-11-05T11:31:22.931Z,100.00
2022-11-05T11:33:58.407Z,100.00
2022-11-05T11:36:33.482Z,100.00
2022-11-05T11:39:06.757Z,100.00
2022-11-05T11:41:42.052Z,100.00
2022-11-05T11:44:27.319Z,100.00
2022-11-05T11:47:02.683Z,100.00
2022-11-05T11:49:57.979Z,100.00
2022-11-05T11:52:34.811Z,100.00
2022-11-05T11:55:11.837Z,100.00
2022-11-05T11:57:52.991Z,100.00
2022-11-05T12:00:24.161Z,100.00
2022-11-05T12:03:31.615Z,100.00
2022-11-05T12:06:33.779Z,100.00
2022-11-05T12:09:45.901Z,100.00
2022-11-05T12:12:19.669Z,100.00
2022-11-05T12:15:20.024Z,100.00
2022-11-05T12:18:08.739Z,100.00
2022-11-05T12:21:51.884Z,100.00
2022-11-05T12:25:11.761Z,100.00
2022-11-05T12:28:00.208Z,100.00
2022-11-05T12:30:40.231Z,100.00
2022-11-05T12:33:46.809Z,100.00
2022-11-05T12:36:45.737Z,100.00
2022-11-05T12:39:25.174Z,100.00
2022-11-05T12:42:01.230Z,100.00
2022-11-05T12:44:38.211Z,100.00
2022-11-05T12:47:30.470Z,100.00
2022-11-05T12:50:17.438Z,100.00
2022-11-05T12:53:11.292Z,100.00
2022-11-05T12:55:48.602Z,100.00
2022-11-05T12:58:43.071Z,100.00
2022-11-05T13:01:21.658Z,100.00
2022-11-05T13:04:27.294Z,100.00
2022-11-05T13:06:57.532Z,100.00
2022-11-05T13:09:59.591Z,100.00
2022-11-05T13:12:31.359Z,100.00
2022-11-05T13:15:16.064Z,100.00
2022-11-05T13:17:59.863Z,100.00
2022-11-05T13:20:37.703Z,100.00
2022-11-05T13:23:16.377Z,100.00
2022-11-05T13:25:55.795Z,100.00
2022-11-05T13:28:48.167Z,100.00
2022-11-05T13:31:22.258Z,100.00
2022-11-05T13:33:52.348Z,100.00
2022-11-05T13:36:46.025Z,100.00
2022-11-05T13:39:27.728Z,100.00
2022-11-05T13:42:30.734Z,100.00
2022-11-05T13:45:35.156Z,100.00
2022-11-05T13:48:27.520Z,100.00
2022-11-05T13:51:27.429Z,100.00
2022-11-05T13:54:19.053Z,100.00
2022-11-05T13:57:39.056Z,100.00
2022-11-05T14:00:27.363Z,100.00
2022-11-05T14:02:58.058Z,100.00
2022-11-05T14:05:40.142Z,100.00
2022-11-05T14:08:16.188Z,100.00
2022-11-05T14:10:56.992Z,100.00
2022-11-05T14:13:36.862Z,100.00
2022-11-05T14:16:09.173Z,100.00
2022-11-05T14:18:47.810Z,100.00
2022-11-05T14:21:27.682Z,100.00
2022-11-05T14:23:57.386Z,100.00
2022-11-05T14:26:28.773Z,100.00
2022-11-05T14:29:24.874Z,100.00
2022-11-05T14:32:09.609Z,100.00
2022-11-05T14:35:14.449Z,100.00
2022-11-05T14:37:53.356Z,100.00
2022-11-05T14:40:47.561Z,100.00
2022-11-05T14:43:19.304Z,100.00
2022-11-05T14:46:06.467Z,100.00
2022-11-05T14:48:58.416Z,100.00
2022-11-05T14:51:44.287Z,100.00
2022-11-05T14:54:24.277Z,100.00
2022-11-05T14:56:59.457Z,100.00
2022-11-05T14:59:32.952Z,100.00
2022-11-05T15:02:15.083Z,100.00
2022-11-05T15:04:45.636Z,100.00
2022-11-05T15:07:37.515Z,100.00
2022-11-05T15:10:17.149Z,100.00
2022-11-05T15:12:56.608Z,100.00
2022-11-05T15:15:30.337Z,100.00
2022-11-05T15:18:31.045Z,100.00
2022-11-05T15:21:02.501Z,100.00
2022-11-05T15:23:40.965Z,100.00
2022-11-05T15:26:34.464Z,100.00
2022-11-05T15:29:02.075Z,100.00
2022-11-05T15:31:43.214Z,100.00
2022-11-05T15:34:31.880Z,100.00
2022-11-05T15:37:22.049Z,100.00
2022-11-05T15:39:55.515Z,100.00
2022-11-05T15:42:26.649Z,100.00
2022-11-05T15:44:59.820Z,100.00
2022-11-05T15:47:34.654Z,100.00
2022-11-05T15:50:14.013Z,100.00
2022-11-05T15:52:53.901Z,100.00
2022-11-05T15:55:25.280Z,100.00
2022-11-05T15:58:04.451Z,100.00
2022-11-05T16:00:36.312Z,100.00
2022-11-05T16:03:32.337Z,100.00
2022-11-05T16:06:01.760Z,100.00
2022-11-05T16:08:31.579Z,100.00
2022-11-05T16:11:00.871Z,100.00
2022-11-05T16:13:41.295Z,100.00
2022-11-05T16:16:14.825Z,100.00
2022-11-05T16:18:44.810Z,100.00
2022-11-05T16:21:17.627Z,100.00
2022-11-05T16:23:48.381Z,100.00
2022-11-05T16:29:47.581Z,100.00
2022-11-05T16:32:18.272Z,100.00
2022-11-05T16:34:50.941Z,100.00
2022-11-05T16:37:24.195Z,100.00
2022-11-05T16:39:53.273Z,100.00
2022-11-05T16:42:23.423Z,100.00
2022-11-05T16:44:54.143Z,100.00
2022-11-05T16:47:23.588Z,100.00
2022-11-05T16:49:51.449Z,100.00
2022-11-05T16:52:19.522Z,100.00
2022-11-05T16:54:47.355Z,100.00
2022-11-05T16:57:27.476Z,100.00
2022-11-05T16:59:57.104Z,100.00
2022-11-05T17:02:25.072Z,100.00
2022-11-05T17:04:53.145Z,100.00
2022-11-05T17:07:20.684Z,100.00
2022-11-05T17:09:48.549Z,100.00
2022-11-05T17:12:16.839Z,100.00
2022-11-05T17:14:44.576Z,100.00
2022-11-05T17:17:12.178Z,100.00
2022-11-05T17:19:42.641Z,100.00
2022-11-05T17:22:10.293Z,100.00
2022-11-05T17:24:38.937Z,100.00
2022-11-05T17:27:06.483Z,100.00
2022-11-05T17:29:35.116Z,100.00
2022-11-05T17:32:02.710Z,100.00
2022-11-05T17:34:30.543Z,100.00
2022-11-05T17:36:58.244Z,100.00
2022-11-05T17:39:31.212Z,100.00
2022-11-05T17:41:59.253Z,100.00
2022-11-05T17:44:27.055Z,100.00
2022-11-05T17:46:54.520Z,100.00
2022-11-05T17:49:22.322Z,100.00
2022-11-05T17:51:49.798Z,100.00
2022-11-05T17:54:17.587Z,100.00
2022-11-05T17:56:45.061Z,100.00
2022-11-05T17:59:13.143Z,100.00
2022-11-05T18:01:43.635Z,100.00
2022-11-05T18:04:12.516Z,100.00
2022-11-05T18:06:41.331Z,100.00
2022-11-05T18:09:11.113Z,100.00
2022-11-05T18:11:39.666Z,100.00
2022-11-05T18:14:08.396Z,100.00
2022-11-05T18:16:36.178Z,100.00
2022-11-05T18:19:04.552Z,100.00
2022-11-05T18:21:32.124Z,100.00
2022-11-05T18:24:04.402Z,100.00
2022-11-05T18:26:32.884Z,100.00
2022-11-05T18:29:02.490Z,100.00
2022-11-05T18:31:30.163Z,100.00
2022-11-05T18:33:59.878Z,100.00
2022-11-05T18:36:30.910Z,100.00
2022-11-05T18:39:01.152Z,100.00
2022-11-05T18:41:28.897Z,100.00
2022-11-05T18:44:01.697Z,100.00
2022-11-05T18:46:56.965Z,100.00
2022-11-05T18:49:21.927Z,100.00
2022-11-05T18:51:49.440Z,100.00
2022-11-05T18:54:18.673Z,100.00
2022-11-05T18:56:46.605Z,100.00
2022-11-05T19:02:06.741Z,100.00
2022-11-05T19:04:38.534Z,100.00
2022-11-05T19:07:08.173Z,100.00
2022-11-05T19:09:37.887Z,100.00
2022-11-05T19:12:07.178Z,100.00
2022-11-05T19:14:36.121Z,100.00
2022-11-05T19:17:04.318Z,100.00
2022-11-05T19:19:32.182Z,100.00
2022-11-05T19:21:59.823Z,100.00
2022-11-05T19:24:27.955Z,100.00
2022-11-05T19:26:55.881Z,100.00
2022-11-05T19:29:23.810Z,100.00
2022-11-05T19:31:51.348Z,100.00
2022-11-05T19:34:19.322Z,100.00
2022-11-05T19:36:47.069Z,100.00
2022-11-05T19:39:15.307Z,100.00
2022-11-05T19:41:42.812Z,100.00
2022-11-05T19:44:11.372Z,100.00
2022-11-05T19:46:38.886Z,100.00
2022-11-05T19:49:06.664Z,100.00
2022-11-05T19:51:34.495Z,100.00
2022-11-05T19:54:05.790Z,100.00
2022-11-05T19:56:36.692Z,100.00
2022-11-05T19:59:08.869Z,100.00
2022-11-05T20:01:37.645Z,100.00
2022-11-05T20:04:05.968Z,100.00
2022-11-05T20:06:38.960Z,100.00
2022-11-05T20:09:27.102Z,100.00
2022-11-05T20:11:56.614Z,100.00
2022-11-05T20:14:26.363Z,100.00
2022-11-05T20:16:54.252Z,100.00
2022-11-05T20:19:23.338Z,100.00
2022-11-05T20:21:50.968Z,100.00
2022-11-05T20:24:24.624Z,100.00
2022-11-05T20:26:55.445Z,100.00
2022-11-05T20:29:29.078Z,100.00
2022-11-05T20:32:02.306Z,100.00
2022-11-05T20:34:32.118Z,100.00
2022-11-05T20:36:59.929Z,100.00
2022-11-05T20:39:28.918Z,100.00
2022-11-05T20:41:56.942Z,100.00
2022-11-05T20:44:24.948Z,100.00
2022-11-05T20:46:52.493Z,100.00
2022-11-05T20:49:25.157Z,100.00
2022-11-05T20:51:53.740Z,100.00
2022-11-05T20:54:22.014Z,100.00
2022-11-05T20:56:49.757Z,100.00
2022-11-05T20:59:17.641Z,100.00
2022-11-05T21:01:45.269Z,100.00
2022-11-05T21:04:13.186Z,100.00
2022-11-05T21:06:40.658Z,100.00
2022-11-05T21:09:08.638Z,100.00
2022-11-05T21:11:56.157Z,100.00
2022-11-05T21:14:24.021Z,100.00
2022-11-05T21:16:51.785Z,100.00
2022-11-05T21:19:19.913Z,100.00
2022-11-05T21:21:47.909Z,100.00
2022-11-05T21:24:16.071Z,100.00
2022-11-05T21:26:43.568Z,100.00
2022-11-05T21:29:11.440Z,100.00
2022-11-05T21:31:38.982Z,100.00
2022-11-05T21:34:07.050Z,100.00
2022-11-05T21:36:34.884Z,100.00
2022-11-05T21:39:06.624Z,100.00
2022-11-05T21:41:36.717Z,100.00
2022-11-05T21:44:04.827Z,100.00
2022-11-05T21:46:32.307Z,100.00
2022-11-05T21:49:00.175Z,100.00
2022-11-05T21:51:46.556Z,100.00
2022-11-05T21:54:32.886Z,100.00
2022-11-05T21:57:18.804Z,100.00
2022-11-05T21:59:51.436Z,100.00
2022-11-05T22:02:25.268Z,100.00
2022-11-05T22:04:56.348Z,100.00
2022-11-05T22:07:31.738Z,100.00
2022-11-05T22:10:00.772Z,100.00
2022-11-05T22:12:28.863Z,100.00
2022-11-05T22:14:57.136Z,100.00
2022-11-05T22:17:24.993Z,100.00
2022-11-05T22:19:53.119Z,100.00
2022-11-05T22:22:21.183Z,100.00
2022-11-05T22:24:49.252Z,100.00
2022-11-05T22:27:21.489Z,100.00
2022-11-05T22:29:50.279Z,100.00
2022-11-05T22:32:18.337Z,100.00
2022-11-05T22:34:48.712Z,100.00
2022-11-05T22:37:16.522Z,100.00
2022-11-05T22:39:44.352Z,100.00
2022-11-05T22:42:11.914Z,100.00
2022-11-05T22:44:39.895Z,100.00
2022-11-05T22:47:07.758Z,100.00
2022-11-05T22:49:35.652Z,100.00
2022-11-05T22:52:03.358Z,100.00
2022-11-05T22:54:36.380Z,100.00
2022-11-05T22:57:06.865Z,100.00
2022-11-05T22:59:34.718Z,100.00
2022-11-05T23:02:08.248Z,100.00
2022-11-05T23:04:38.219Z,100.00
2022-11-05T23:07:27.647Z,100.00
2022-11-05T23:10:14.676Z,100.00
2022-11-05T23:12:44.458Z,100.00
2022-11-05T23:15:31.764Z,100.00
2022-11-05T23:18:17.791Z,100.00
2022-11-05T23:21:04.260Z,100.00
2022-11-05T23:23:50.494Z,100.00
2022-11-05T23:26:36.866Z,100.00
2022-11-05T23:29:04.427Z,100.00
2022-11-05T23:31:51.567Z,100.00
2022-11-05T23:34:19.879Z,100.00
2022-11-05T23:37:06.563Z,100.00
2022-11-05T23:39:39.662Z,100.00
2022-11-05T23:42:29.728Z,100.00
2022-11-05T23:45:15.753Z,100.00
2022-11-05T23:48:02.227Z,100.00
2022-11-05T23:50:35.634Z,100.00
2022-11-05T23:53:05.161Z,100.00
2022-11-05T23:55:32.672Z,100.00
2022-11-05T23:58:00.749Z,100.00
